Time;durP1;ratioP1;P1;durP2;ratioP2;P2;SDS_P1;SDS_P2;PMS_P1;PMS_P2;Temp;Humidity;BMP_temperature;BMP_pressure;BME280_temperature;BME280_humidity;BME280_pressure;Samples;Min_cycle;Max_cycle;Signal;HPM_P1;HPM_P2
2022/05/27 00:02:19;;;;;;;0.65;0.40;;;;;;;25.11;39.34;99811.16;5071122;28;20056;-70
2022/05/27 00:04:44;;;;;;;0.30;0.30;;;;;;;25.10;39.56;99810.34;5072780;28;20122;-70
2022/05/27 00:07:10;;;;;;;0.50;0.30;;;;;;;25.10;39.78;99807.56;5072489;28;20119;-70
2022/05/27 00:09:37;;;;;;;0.47;0.30;;;;;;;25.12;39.39;99805.16;5072377;28;20058;-70
2022/05/27 00:12:03;;;;;;;0.45;0.40;;;;;;;25.09;39.78;99802.34;5052962;28;20041;-70
2022/05/27 00:14:28;;;;;;;0.40;0.40;;;;;;;25.09;39.43;99796.75;5072573;28;20044;-70
2022/05/27 00:16:54;;;;;;;0.32;0.30;;;;;;;25.09;39.45;99794.75;5072750;28;20392;-70
2022/05/27 00:19:19;;;;;;;0.50;0.30;;;;;;;25.09;39.54;99799.56;5072490;28;20556;-70
2022/05/27 00:21:45;;;;;;;0.70;0.30;;;;;;;25.05;39.55;99790.34;5072629;28;20119;-70
2022/05/27 00:24:10;;;;;;;0.30;0.30;;;;;;;25.05;39.62;99788.34;5072429;28;20048;-70
2022/05/27 00:26:35;;;;;;;0.30;0.30;;;;;;;25.06;39.87;99789.94;5072562;28;20056;-70
2022/05/27 00:29:01;;;;;;;0.52;0.30;;;;;;;25.05;39.50;99779.13;5072610;28;20048;-70
2022/05/27 00:31:26;;;;;;;0.77;0.32;;;;;;;25.04;39.57;99788.72;5071962;28;20048;-70
2022/05/27 00:33:52;;;;;;;0.60;0.32;;;;;;;25.03;39.88;99787.91;5072185;28;20408;-70
2022/05/27 00:36:17;;;;;;;0.50;0.30;;;;;;;25.04;39.55;99786.72;5072078;28;20503;-70
2022/05/27 00:38:43;;;;;;;0.22;0.20;;;;;;;25.02;39.80;99786.31;5072363;28;20044;-70
2022/05/27 00:41:10;;;;;;;0.50;0.40;;;;;;;25.04;39.49;99786.72;5072176;28;20143;-70
2022/05/27 00:43:35;;;;;;;0.63;0.32;;;;;;;25.04;39.60;99783.94;5071980;28;20412;-70
2022/05/27 00:46:10;;;;;;;0.40;0.30;;;;;;;25.03;39.69;99778.72;5072164;28;20100;-70
2022/05/27 00:48:37;;;;;;;0.43;0.30;;;;;;;25.03;39.59;99778.72;5071957;28;20049;-70
2022/05/27 00:51:07;;;;;;;0.45;0.30;;;;;;;25.03;39.72;99779.50;5071661;28;20058;-70
2022/05/27 00:53:38;;;;;;;0.63;0.40;;;;;;;25.03;39.92;99775.91;5071804;28;20399;-70
2022/05/27 00:56:05;;;;;;;0.45;0.30;;;;;;;25.02;39.74;99775.09;5071808;28;20051;-67
2022/05/27 00:58:36;;;;;;;0.28;0.22;;;;;;;25.00;39.85;99774.69;5071884;28;20048;-67
2022/05/27 01:01:01;;;;;;;0.63;0.40;;;;;;;24.98;39.74;99772.28;5061817;28;20049;-67
2022/05/27 01:03:29;;;;;;;0.30;0.20;;;;;;;24.98;39.76;99771.47;5071759;28;20044;-67
2022/05/27 01:05:55;;;;;;;0.17;0.17;;;;;;;25.01;39.54;99781.91;5071884;28;20129;-67
2022/05/27 01:08:23;;;;;;;0.22;0.20;;;;;;;24.98;39.93;99782.69;5071446;28;20060;-67
2022/05/27 01:11:18;;;;;;;0.20;0.20;;;;;;;24.98;39.63;99788.28;5071658;28;20056;-67
2022/05/27 01:13:51;;;;;;;0.30;0.30;;;;;;;24.95;39.81;99778.69;5072092;28;20059;-67
2022/05/27 01:17:01;;;;;;;0.30;0.30;;;;;;;24.97;40.04;99786.69;5075185;28;20052;-67
2022/05/27 01:22:44;;;;;;;1.13;0.40;;;;;;;24.95;39.86;99797.47;5079525;28;20055;-67
2022/05/27 01:25:40;;;;;;;0.60;0.30;;;;;;;24.94;40.03;99793.88;5079329;28;20054;-67
2022/05/27 01:28:19;;;;;;;0.20;0.20;;;;;;;24.94;40.07;99798.66;5076239;28;20052;-67
2022/05/27 01:30:53;;;;;;;0.30;0.22;;;;;;;24.94;40.11;99796.66;5071455;28;20109;-67
2022/05/27 01:33:34;;;;;;;0.30;0.30;;;;;;;24.90;40.03;99790.25;5070930;28;20098;-70
2022/05/27 01:36:05;;;;;;;0.40;0.30;;;;;;;24.94;40.04;99798.66;5071128;28;20813;-70
2022/05/27 01:38:53;;;;;;;0.45;0.40;;;;;;;24.91;40.10;99802.25;5071384;28;20512;-70
2022/05/27 01:41:48;;;;;;;0.45;0.32;;;;;;;24.91;40.05;99807.84;5071360;28;20044;-70
2022/05/27 01:44:48;;;;;;;0.30;0.30;;;;;;;24.91;40.03;99811.44;5067116;28;20051;-70
2022/05/27 01:47:27;;;;;;;0.30;0.30;;;;;;;24.90;40.12;99804.25;5071178;28;20084;-70
2022/05/27 01:50:02;;;;;;;0.40;0.30;;;;;;;24.88;40.24;99806.63;5071462;28;20045;-70
2022/05/27 01:53:11;;;;;;;0.30;0.25;;;;;;;24.89;40.15;99807.44;5069470;28;20187;-70
2022/05/27 01:55:40;;;;;;;0.45;0.30;;;;;;;24.90;39.99;99809.84;4986506;28;20473;-70
2022/05/27 01:58:12;;;;;;;0.25;0.20;;;;;;;24.89;40.15;99801.84;4989324;28;20085;-70
2022/05/27 02:00:41;;;;;;;0.65;0.40;;;;;;;24.88;40.01;99797.44;4989465;28;20178;-70
2022/05/27 02:03:19;;;;;;;0.40;0.30;;;;;;;24.89;40.07;99799.03;4989353;28;20046;-70
2022/05/27 02:05:50;;;;;;;0.65;0.40;;;;;;;24.87;40.21;99802.25;4989361;28;20057;-70
2022/05/27 02:08:20;;;;;;;0.68;0.40;;;;;;;24.88;40.06;99801.03;4989243;28;20097;-70
2022/05/27 02:11:00;;;;;;;0.50;0.40;;;;;;;24.86;40.13;99797.84;4989373;28;20043;-70
2022/05/27 02:13:40;;;;;;;0.32;0.30;;;;;;;24.88;40.32;99805.84;4989316;28;20053;-70
2022/05/27 02:16:09;;;;;;;0.28;0.28;;;;;;;24.85;40.30;99801.00;4988830;28;20054;-70
2022/05/27 02:18:51;;;;;;;0.43;0.20;;;;;;;24.86;40.38;99805.41;4988995;28;20038;-70
2022/05/27 02:21:34;;;;;;;0.17;0.17;;;;;;;24.86;40.10;99799.81;4989147;28;20054;-70
2022/05/27 02:24:23;;;;;;;;;;;;;;;24.87;40.12;99795.84;4989016;28;20050;-70
2022/05/27 02:26:54;;;;;;;0.60;0.40;;;;;;;24.86;40.21;99795.03;4978548;28;20417;-70
2022/05/27 02:29:28;;;;;;;0.53;0.40;;;;;;;24.84;40.35;99799.41;4989132;28;20061;-70
2022/05/27 02:31:58;;;;;;;0.40;0.30;;;;;;;24.84;40.30;99797.41;5004971;28;20051;-70
2022/05/27 02:37:32;;;;;;;0.47;0.30;;;;;;;24.80;40.49;99799.41;5069153;28;20055;-70
2022/05/27 02:40:01;;;;;;;0.40;0.30;;;;;;;24.81;40.33;99800.22;5070325;28;20097;-70
2022/05/27 02:42:39;;;;;;;0.30;0.30;;;;;;;24.80;40.27;99796.63;5068254;28;20041;-70
2022/05/27 02:45:23;;;;;;;0.52;0.30;;;;;;;24.80;40.35;99798.59;5066496;28;20048;-70
2022/05/27 02:48:04;;;;;;;0.40;0.40;;;;;;;24.80;40.37;99793.00;5051028;28;20071;-70
2022/05/27 02:50:52;;;;;;;0.43;0.40;;;;;;;24.77;40.48;99783.38;5050455;28;20505;-70
2022/05/27 02:53:36;;;;;;;0.45;0.32;;;;;;;24.76;40.28;99781.78;5050583;28;20131;-70
2022/05/27 02:56:12;;;;;;;0.68;0.40;;;;;;;24.78;40.51;99781.38;5048584;28;20057;-70
2022/05/27 02:58:38;;;;;;;0.28;0.28;;;;;;;24.78;40.53;99787.00;5050364;28;20523;-70
2022/05/27 03:01:04;;;;;;;0.30;0.30;;;;;;;24.79;40.44;99777.41;5050150;28;20045;-70
2022/05/27 03:03:29;;;;;;;0.20;0.20;;;;;;;24.77;40.36;99786.19;5049939;28;20063;-70
2022/05/27 03:06:31;;;;;;;0.65;0.40;;;;;;;24.76;40.50;99786.59;5050002;28;20147;-70
2022/05/27 03:09:31;;;;;;;0.65;0.40;;;;;;;24.75;40.34;99790.59;5049973;28;20061;-70
2022/05/27 03:12:05;;;;;;;0.55;0.43;;;;;;;24.73;40.68;99793.78;5049866;28;20060;-70
2022/05/27 03:14:59;;;;;;;0.30;0.30;;;;;;;24.74;40.62;99794.59;5049903;28;20056;-70
2022/05/27 03:17:44;;;;;;;0.70;0.40;;;;;;;24.73;40.46;99799.38;5049556;28;20052;-70
2022/05/27 03:20:35;;;;;;;0.50;0.40;;;;;;;24.73;40.56;99810.56;5049818;28;20049;-70
2022/05/27 03:23:18;;;;;;;0.45;0.30;;;;;;;24.73;40.50;99806.97;5017603;28;20041;-70
2022/05/27 03:25:50;;;;;;;0.50;0.30;;;;;;;24.71;40.35;99808.13;5049552;28;20099;-70
2022/05/27 03:28:18;;;;;;;0.50;0.40;;;;;;;24.71;40.59;99815.72;5049925;28;20041;-70
2022/05/27 03:31:12;;;;;;;0.40;0.40;;;;;;;24.70;40.60;99805.75;5049713;28;20053;-70
2022/05/27 03:33:47;;;;;;;0.30;0.30;;;;;;;24.69;40.69;99813.34;5049741;28;20424;-70
2022/05/27 03:36:23;;;;;;;0.73;0.30;;;;;;;24.70;40.61;99811.34;5048306;28;20052;-70
2022/05/27 03:39:01;;;;;;;0.50;0.40;;;;;;;24.68;40.65;99816.53;5049899;28;20126;-70
2022/05/27 03:41:35;;;;;;;0.32;0.32;;;;;;;24.69;40.51;99818.13;5049484;28;20049;-70
2022/05/27 03:44:01;;;;;;;0.50;0.38;;;;;;;24.70;40.64;99826.13;5049127;28;20056;-70
2022/05/27 03:46:28;;;;;;;0.40;0.30;;;;;;;24.68;40.75;99819.31;5049238;28;20196;-70
2022/05/27 03:48:53;;;;;;;0.40;0.40;;;;;;;24.67;40.79;99829.72;5049449;28;20500;-70
2022/05/27 03:51:22;;;;;;;0.65;0.40;;;;;;;24.67;40.70;99824.13;5049405;28;20053;-70
2022/05/27 03:54:05;;;;;;;1.33;0.40;;;;;;;24.67;40.74;99828.91;5049426;28;20049;-70
2022/05/27 03:56:39;;;;;;;0.50;0.38;;;;;;;24.67;40.79;99829.72;5049152;28;20045;-70
2022/05/27 03:59:06;;;;;;;0.55;0.40;;;;;;;24.67;40.67;99831.72;5049232;28;20409;-70
2022/05/27 04:01:33;;;;;;;0.40;0.32;;;;;;;24.65;40.68;99826.50;5049347;28;20124;-70
2022/05/27 04:04:02;;;;;;;0.40;0.30;;;;;;;24.65;40.63;99829.31;5048862;28;20127;-67
2022/05/27 04:06:28;;;;;;;0.73;0.40;;;;;;;24.66;40.58;99836.50;5048939;28;20045;-67
2022/05/27 04:08:54;;;;;;;0.30;0.30;;;;;;;24.65;40.83;99826.50;5049344;28;20052;-67
2022/05/27 04:11:20;;;;;;;0.40;0.40;;;;;;;24.66;40.69;99832.91;5049181;28;20037;-67
2022/05/27 04:13:47;;;;;;;0.60;0.40;;;;;;;24.65;40.83;99832.09;5049211;28;20409;-67
2022/05/27 04:16:12;;;;;;;0.50;0.38;;;;;;;24.66;40.66;99842.09;5048937;28;20085;-67
2022/05/27 04:18:37;;;;;;;0.30;0.30;;;;;;;24.65;40.70;99842.50;5049040;28;20072;-67
2022/05/27 04:21:03;;;;;;;0.40;0.30;;;;;;;24.63;40.77;99839.25;5049091;28;20412;-67
2022/05/27 04:23:29;;;;;;;0.98;0.60;;;;;;;24.64;40.87;99840.88;5049075;28;20053;-70
2022/05/27 04:25:54;;;;;;;0.47;0.40;;;;;;;24.64;40.77;99841.66;5048614;28;20049;-70
2022/05/27 04:28:20;;;;;;;0.25;0.25;;;;;;;24.65;40.77;99848.09;5048907;28;20493;-70
2022/05/27 04:30:45;;;;;;;0.52;0.40;;;;;;;24.63;41.04;99845.66;5049026;28;20420;-70
2022/05/27 04:33:12;;;;;;;0.30;0.30;;;;;;;24.63;40.81;99848.47;5030983;28;20049;-70
2022/05/27 04:35:38;;;;;;;0.65;0.40;;;;;;;24.62;41.00;99843.25;5048981;28;20556;-70
2022/05/27 04:38:04;;;;;;;0.77;0.40;;;;;;;24.63;40.99;99845.66;5048733;28;20087;-70
2022/05/27 04:40:30;;;;;;;0.80;0.45;;;;;;;24.66;41.00;99844.09;5048855;28;20059;-66
2022/05/27 04:42:56;;;;;;;0.60;0.40;;;;;;;24.66;40.95;99849.69;5048791;28;20045;-67
2022/05/27 04:45:21;;;;;;;0.35;0.35;;;;;;;24.66;41.09;99853.28;5048333;28;20099;-67
2022/05/27 04:47:48;;;;;;;0.98;0.50;;;;;;;24.65;41.17;99848.88;5049928;28;20075;-67
2022/05/27 04:50:14;;;;;;;0.30;0.30;;;;;;;24.65;41.21;99843.28;5050144;28;20095;-67
2022/05/27 04:52:40;;;;;;;0.45;0.35;;;;;;;24.68;41.13;99850.88;5051964;28;20468;-68
2022/05/27 04:55:09;;;;;;;0.52;0.45;;;;;;;24.69;41.20;99854.50;5052282;28;20057;-68
2022/05/27 04:57:41;;;;;;;0.50;0.40;;;;;;;24.69;41.27;99863.69;5051995;28;20056;-67
2022/05/27 05:00:29;;;;;;;0.57;0.40;;;;;;;24.69;41.14;99860.88;5052102;28;20051;-67
2022/05/27 05:02:55;;;;;;;0.70;0.50;;;;;;;24.73;41.36;99869.31;5052111;28;20049;-67
2022/05/27 05:05:22;;;;;;;0.68;0.40;;;;;;;24.71;41.08;99868.88;5051565;28;20045;-67
2022/05/27 05:07:54;;;;;;;0.45;0.30;;;;;;;24.70;41.28;99861.69;5050002;28;20136;-67
2022/05/27 05:10:22;;;;;;;0.50;0.40;;;;;;;24.72;41.25;99876.09;5051964;28;20049;-67
2022/05/27 05:12:49;;;;;;;23.58;1.02;;;;;;;24.74;41.86;99864.53;5051846;28;20076;-67
2022/05/27 05:15:15;;;;;;;0.52;0.30;;;;;;;24.75;41.66;99866.91;5051663;28;20072;-69
2022/05/27 05:17:40;;;;;;;0.45;0.32;;;;;;;24.72;41.55;99859.31;5051730;28;20472;-68
2022/05/27 05:20:07;;;;;;;3.28;0.45;;;;;;;24.70;41.41;99859.69;5051771;28;20052;-67
2022/05/27 05:22:33;;;;;;;0.70;0.40;;;;;;;24.74;41.47;99858.91;5051882;28;20081;-70
2022/05/27 05:24:58;;;;;;;1.20;0.45;;;;;;;24.71;41.32;99866.88;5051216;28;20148;-70
2022/05/27 05:27:26;;;;;;;0.43;0.28;;;;;;;24.72;41.38;99864.91;5051369;28;20496;-70
2022/05/27 05:29:53;;;;;;;0.38;0.35;;;;;;;24.72;41.20;99859.31;5051760;28;20045;-70
2022/05/27 05:32:19;;;;;;;0.52;0.47;;;;;;;24.74;41.26;99861.72;5051470;28;20055;-70
2022/05/27 05:34:44;;;;;;;2.67;0.60;;;;;;;24.75;41.21;99866.91;5051319;28;20131;-70
2022/05/27 05:37:10;;;;;;;0.82;0.40;;;;;;;24.76;41.06;99865.72;5051154;28;20148;-70
2022/05/27 05:39:36;;;;;;;0.65;0.35;;;;;;;24.74;41.20;99868.13;5051402;28;20516;-70
2022/05/27 05:42:05;;;;;;;1.48;0.40;;;;;;;24.74;41.11;99864.53;5051503;28;20519;-70
2022/05/27 05:44:30;;;;;;;0.55;0.40;;;;;;;24.76;41.28;99868.53;5051181;28;20056;-70
2022/05/27 05:47:00;;;;;;;0.65;0.40;;;;;;;24.77;40.97;99866.53;5050985;28;20071;-70
2022/05/27 05:49:26;;;;;;;1.35;0.45;;;;;;;24.78;40.91;99860.53;5051023;28;20049;-70
2022/05/27 05:51:52;;;;;;;0.90;0.50;;;;;;;24.77;41.24;99855.34;5048606;28;20456;-70
2022/05/27 05:54:21;;;;;;;0.38;0.30;;;;;;;24.78;41.06;99854.13;5050954;28;20045;-70
2022/05/27 05:56:48;;;;;;;0.82;0.40;;;;;;;24.79;40.89;99855.72;5051025;28;20079;-70
2022/05/27 05:59:15;;;;;;;0.40;0.30;;;;;;;24.78;40.85;99863.31;5050137;28;20052;-70
2022/05/27 06:01:41;;;;;;;0.50;0.40;;;;;;;24.78;41.05;99856.94;5051260;28;20049;-70
2022/05/27 06:04:07;;;;;;;0.30;0.20;;;;;;;24.87;40.74;99865.78;5051239;28;20056;-70
2022/05/27 06:06:33;;;;;;;0.90;0.50;;;;;;;24.90;41.05;99865.81;5051243;28;20047;-70
2022/05/27 06:08:58;;;;;;;0.80;0.40;;;;;;;24.94;40.63;99865.84;5050697;28;20037;-70
2022/05/27 06:11:23;;;;;;;0.43;0.30;;;;;;;24.91;40.84;99855.41;5050924;28;20532;-70
2022/05/27 06:13:49;;;;;;;0.50;0.40;;;;;;;24.95;40.85;99859.03;5050826;28;20045;-70
2022/05/27 06:16:14;;;;;;;0.40;0.25;;;;;;;24.93;40.69;99864.19;5050161;28;20132;-70
2022/05/27 06:18:40;;;;;;;0.20;0.20;;;;;;;24.98;41.00;99856.25;5050695;28;20048;-70
2022/05/27 06:21:06;;;;;;;0.50;0.38;;;;;;;24.98;40.76;99855.44;5050653;28;20072;-70
2022/05/27 06:23:31;;;;;;;0.60;0.40;;;;;;;25.02;40.89;99859.06;5050798;28;20041;-67
2022/05/27 06:26:02;;;;;;;0.25;0.22;;;;;;;24.98;41.00;99852.63;5055155;28;20056;-67
2022/05/27 06:36:42;;;;;;;0.43;0.35;;;;;;;25.04;40.91;99865.09;5050093;28;20060;-70
2022/05/27 06:39:08;;;;;;;0.32;0.25;;;;;;;25.09;40.78;99864.72;5050380;28;20477;-70
2022/05/27 06:41:34;;;;;;;0.35;0.30;;;;;;;25.06;40.66;99864.69;5050503;28;20543;-70
2022/05/27 06:44:00;;;;;;;0.57;0.45;;;;;;;25.06;40.61;99865.50;5050542;28;20045;-70
2022/05/27 06:46:26;;;;;;;0.45;0.30;;;;;;;25.09;40.59;99869.53;5050394;28;20505;-70
2022/05/27 06:48:51;;;;;;;0.50;0.40;;;;;;;25.09;40.51;99861.13;5050076;28;20060;-70
2022/05/27 06:51:18;;;;;;;0.65;0.40;;;;;;;25.11;40.58;99859.53;5050317;28;20452;-70
2022/05/27 06:53:45;;;;;;;0.55;0.30;;;;;;;25.15;40.45;99860.38;5050296;28;20135;-70
2022/05/27 06:56:10;;;;;;;0.63;0.32;;;;;;;25.13;40.67;99856.34;5031863;28;20419;-70
2022/05/27 06:58:37;;;;;;;0.35;0.28;;;;;;;25.11;40.66;99853.94;5050110;28;20528;-70
2022/05/27 07:01:03;;;;;;;0.60;0.32;;;;;;;25.11;40.70;99853.13;5050217;28;20033;-70
2022/05/27 07:03:29;;;;;;;0.50;0.30;;;;;;;25.10;40.77;99852.34;5050088;28;20118;-70
2022/05/27 07:05:54;;;;;;;0.45;0.30;;;;;;;25.15;40.55;99854.75;5050080;28;20045;-70
2022/05/27 07:08:19;;;;;;;0.63;0.40;;;;;;;25.16;40.75;99850.75;5049613;28;20075;-70
2022/05/27 07:10:45;;;;;;;0.40;0.30;;;;;;;25.16;40.59;99847.16;5049899;28;20072;-70
2022/05/27 07:13:11;;;;;;;0.60;0.47;;;;;;;25.18;40.47;99844.75;5050084;28;20148;-70
2022/05/27 07:15:36;;;;;;;0.60;0.43;;;;;;;25.18;40.30;99841.97;5049747;28;20045;-70
2022/05/27 07:18:08;;;;;;;0.40;0.30;;;;;;;25.17;40.61;99843.97;5049641;28;20045;-67
2022/05/27 07:20:36;;;;;;;0.38;0.35;;;;;;;25.18;40.54;99839.16;5048414;28;20041;-67
2022/05/27 07:23:02;;;;;;;0.47;0.40;;;;;;;25.18;40.47;99837.16;5056903;28;20056;-67
2022/05/27 07:25:27;;;;;;;0.65;0.40;;;;;;;25.20;40.53;99833.97;5069717;28;20060;-67
2022/05/27 07:27:53;;;;;;;0.40;0.30;;;;;;;25.19;40.67;99840.75;5069768;28;20084;-67
2022/05/27 07:30:18;;;;;;;0.73;0.40;;;;;;;25.17;40.42;99832.78;5069666;28;20037;-66
2022/05/27 07:32:44;;;;;;;0.68;0.40;;;;;;;25.25;40.37;99828.78;5069595;28;20068;-67
2022/05/27 07:35:10;;;;;;;0.43;0.32;;;;;;;25.28;40.42;99829.19;5069632;28;20049;-66
2022/05/27 07:37:36;;;;;;;0.50;0.38;;;;;;;25.28;40.39;99823.59;5069060;28;20049;-67
2022/05/27 07:40:01;;;;;;;0.60;0.30;;;;;;;25.28;40.38;99826.38;5069611;28;20190;-67
2022/05/27 07:42:26;;;;;;;0.55;0.40;;;;;;;25.27;40.39;99822.00;5069554;28;20534;-67
2022/05/27 07:44:52;;;;;;;0.63;0.45;;;;;;;25.25;40.23;99814.78;5069459;28;20043;-67
2022/05/27 07:47:18;;;;;;;0.63;0.38;;;;;;;25.22;40.31;99804.41;5069456;28;20952;-67
2022/05/27 07:49:44;;;;;;;0.32;0.30;;;;;;;25.28;40.22;99818.78;5069035;28;20040;-67
2022/05/27 07:52:10;;;;;;;0.60;0.30;;;;;;;25.27;40.08;99810.78;5050070;28;20445;-67
2022/05/27 07:54:35;;;;;;;0.45;0.40;;;;;;;25.30;40.26;99813.63;5031355;28;20455;-67
2022/05/27 07:57:01;;;;;;;0.38;0.30;;;;;;;25.28;40.38;99815.19;5048650;28;20049;-67
2022/05/27 07:59:28;;;;;;;0.32;0.30;;;;;;;25.33;40.21;99812.81;5049317;28;20048;-67
2022/05/27 08:01:54;;;;;;;0.40;0.40;;;;;;;25.35;40.19;99809.59;5049551;28;20041;-67
2022/05/27 08:04:19;;;;;;;0.82;0.50;;;;;;;25.34;39.86;99803.22;5049318;28;20048;-67
2022/05/27 08:06:46;;;;;;;0.57;0.45;;;;;;;25.36;40.04;99812.03;5029976;28;20045;-67
2022/05/27 08:09:15;;;;;;;0.50;0.40;;;;;;;25.37;40.31;99810.84;5048783;28;20053;-66
2022/05/27 08:11:40;;;;;;;0.30;0.30;;;;;;;25.36;40.26;99816.81;5049053;28;20065;-67
2022/05/27 08:14:07;;;;;;;0.35;0.35;;;;;;;25.40;39.95;99814.84;5049140;28;20495;-67
2022/05/27 08:16:33;;;;;;;0.40;0.40;;;;;;;25.39;40.25;99811.22;5048803;28;20045;-67
2022/05/27 08:19:00;;;;;;;0.30;0.30;;;;;;;25.37;40.02;99805.22;5048713;28;20071;-67
2022/05/27 08:21:26;;;;;;;0.40;0.40;;;;;;;25.40;40.37;99804.44;5048936;28;20124;-67
2022/05/27 08:23:52;;;;;;;0.52;0.40;;;;;;;25.43;40.23;99805.63;5051782;28;20450;-67
2022/05/27 08:26:18;;;;;;;0.70;0.40;;;;;;;25.44;40.29;99798.84;5052556;28;20048;-68
2022/05/27 08:28:44;;;;;;;0.20;0.20;;;;;;;25.42;40.30;99795.63;5052473;28;20037;-67
2022/05/27 08:31:09;;;;;;;0.40;0.35;;;;;;;25.44;40.30;99796.84;5052589;28;20128;-67
2022/05/27 08:38:01;;;;;;;0.43;0.40;;;;;;;25.41;40.32;99794.03;5052441;28;20052;-67
2022/05/27 08:39:08;;;;;;;0.70;0.50;;;;;;;25.41;40.16;99802.44;5050489;28;20071;-68
2022/05/27 08:41:42;;;;;;;0.47;0.30;;;;;;;25.41;40.07;99792.03;5052774;28;20068;-67
2022/05/27 08:44:24;;;;;;;0.30;0.30;;;;;;;25.43;40.13;99792.44;5050536;28;20401;-67
2022/05/27 08:46:57;;;;;;;0.30;0.30;;;;;;;25.40;40.33;99793.22;5052419;28;20087;-67
2022/05/27 08:49:31;;;;;;;0.45;0.32;;;;;;;25.44;40.20;99796.06;5052193;28;20049;-67
2022/05/27 08:52:10;;;;;;;0.30;0.30;;;;;;;25.45;40.38;99794.84;5052055;28;20076;-67
2022/05/27 08:54:57;;;;;;;0.55;0.40;;;;;;;25.47;40.01;99792.44;5052360;28;20094;-67
2022/05/27 09:00:17;;;;;;;0.40;0.30;;;;;;;25.51;40.24;99782.06;5051846;28;20527;-67
2022/05/27 09:02:55;;;;;;;0.20;0.20;;;;;;;25.49;40.32;99782.44;5051815;28;20049;-67
2022/05/27 09:05:27;;;;;;;0.55;0.40;;;;;;;25.50;40.24;99788.84;5050361;28;20512;-67
2022/05/27 09:08:06;;;;;;;0.47;0.30;;;;;;;25.53;40.18;99783.25;5052033;28;20064;-70
2022/05/27 09:10:34;;;;;;;0.50;0.40;;;;;;;25.56;40.11;99790.03;5051805;28;20045;-70
2022/05/27 09:13:11;;;;;;;0.93;0.40;;;;;;;25.60;40.24;99788.06;5051507;28;20056;-70
2022/05/27 09:15:56;;;;;;;0.40;0.30;;;;;;;25.61;39.86;99778.44;5051792;28;20107;-67
2022/05/27 09:18:29;;;;;;;0.40;0.32;;;;;;;25.63;39.72;99787.25;5051116;28;20136;-67
2022/05/27 09:21:28;;;;;;;;;;;;;;;25.68;39.87;99786.88;5051889;28;20049;-67
2022/05/27 09:23:56;;;;;;;0.32;0.30;;;;;;;25.75;39.60;99786.09;4996175;28;19938;-67
2022/05/27 09:26:37;;;;;;;0.30;0.30;;;;;;;25.66;39.92;99778.06;5051249;28;20127;-67
2022/05/27 09:29:36;;;;;;;0.60;0.40;;;;;;;25.62;39.78;99785.66;5051479;28;20333;-67
2022/05/27 09:32:09;;;;;;;0.35;0.30;;;;;;;25.64;39.81;99785.25;5051555;28;20055;-67
2022/05/27 09:34:37;;;;;;;0.32;0.32;;;;;;;25.63;39.76;99786.44;5050167;28;20049;-67
2022/05/27 09:37:05;;;;;;;0.60;0.40;;;;;;;25.64;40.22;99791.66;5050948;28;20552;-70
2022/05/27 09:39:31;;;;;;;0.60;0.50;;;;;;;25.66;40.21;99777.28;5051048;28;20512;-70
2022/05/27 09:42:21;;;;;;;0.73;0.50;;;;;;;25.68;40.10;99775.66;5051224;28;20049;-70
2022/05/27 09:44:54;;;;;;;0.50;0.38;;;;;;;25.65;40.08;99776.47;5051241;28;20103;-70
2022/05/27 09:47:21;;;;;;;0.80;0.50;;;;;;;25.67;40.20;99784.47;5051019;28;20045;-70
2022/05/27 09:49:57;;;;;;;0.28;0.28;;;;;;;25.64;40.23;99769.25;5051107;28;20067;-70
2022/05/27 09:52:25;;;;;;;0.52;0.38;;;;;;;25.68;40.06;99770.06;5051300;28;20090;-70
2022/05/27 09:54:55;;;;;;;0.70;0.47;;;;;;;25.63;40.21;99766.84;5051230;28;20049;-70
2022/05/27 09:57:29;;;;;;;0.32;0.30;;;;;;;25.66;40.35;99761.25;5050911;28;20144;-67
2022/05/27 09:59:58;;;;;;;0.52;0.38;;;;;;;25.64;40.05;99757.22;5050945;28;20041;-67
2022/05/27 10:02:34;;;;;;;0.55;0.38;;;;;;;25.67;40.03;99751.66;5051062;28;20053;-67
2022/05/27 10:05:01;;;;;;;0.63;0.40;;;;;;;25.73;39.90;99747.28;5051211;28;20440;-67
2022/05/27 10:07:37;;;;;;;0.60;0.40;;;;;;;25.75;40.09;99749.69;5048857;28;20036;-67
2022/05/27 10:10:28;;;;;;;0.57;0.40;;;;;;;25.80;39.79;99752.09;5050910;28;20053;-67
2022/05/27 10:12:57;;;;;;;0.82;0.43;;;;;;;25.78;40.15;99744.06;5051056;28;20041;-67
2022/05/27 10:15:34;;;;;;;0.70;0.50;;;;;;;25.77;39.90;99741.66;5050962;28;20064;-67
2022/05/27 10:18:19;;;;;;;0.30;0.30;;;;;;;25.72;40.32;99736.47;5048657;28;20060;-67
2022/05/27 10:20:51;;;;;;;0.47;0.40;;;;;;;25.74;40.38;99737.66;5050664;28;20103;-70
2022/05/27 10:23:36;;;;;;;0.38;0.38;;;;;;;25.75;40.35;99732.88;5049343;28;20064;-70
2022/05/27 10:26:19;;;;;;;0.30;0.30;;;;;;;25.78;40.01;99724.44;5050833;28;20049;-70
2022/05/27 10:28:56;;;;;;;0.60;0.47;;;;;;;25.71;40.11;99713.22;5048896;28;20048;-70
2022/05/27 10:31:21;;;;;;;0.88;0.40;;;;;;;25.85;40.18;99722.84;5049756;28;20037;-70
2022/05/27 10:33:47;;;;;;;0.88;0.35;;;;;;;25.83;40.34;99714.84;5050664;28;20127;-70
2022/05/27 10:36:34;;;;;;;0.50;0.40;;;;;;;25.83;40.18;99717.63;5050554;28;20045;-70
2022/05/27 10:38:59;;;;;;;0.57;0.47;;;;;;;25.81;40.51;99708.03;5050184;28;20123;-70
2022/05/27 10:42:02;;;;;;;0.50;0.40;;;;;;;25.80;40.26;99698.84;5050403;28;20131;-70
2022/05/27 10:45:10;;;;;;;0.50;0.40;;;;;;;25.86;40.52;99702.00;5050442;28;20049;-70
2022/05/27 10:48:03;;;;;;;0.45;0.38;;;;;;;25.88;40.49;99706.03;5050152;28;20045;-70
2022/05/27 10:50:40;;;;;;;0.60;0.40;;;;;;;25.90;40.13;99703.63;5050277;28;20044;-70
2022/05/27 10:53:21;;;;;;;0.38;0.30;;;;;;;25.96;40.35;99692.81;5050492;28;20045;-70
2022/05/27 10:56:22;;;;;;;2.85;0.47;;;;;;;25.94;40.54;99682.00;5050368;28;20470;-70
2022/05/27 11:02:04;;;;;;;1.02;0.50;;;;;;;25.89;40.56;99682.41;5050415;28;20080;-70
2022/05/27 11:04:48;;;;;;;0.40;0.40;;;;;;;25.90;40.68;99675.59;5049862;28;20417;-70
2022/05/27 11:07:38;;;;;;;0.73;0.50;;;;;;;25.94;40.55;99670.00;5049920;28;20467;-70
2022/05/27 11:10:06;;;;;;;0.65;0.40;;;;;;;25.90;40.64;99660.78;5048075;28;20052;-70
2022/05/27 11:15:37;;;;;;;0.57;0.43;;;;;;;25.95;40.60;99655.56;5048900;28;20049;-70
2022/05/27 11:18:15;;;;;;;0.40;0.32;;;;;;;25.97;40.61;99655.97;5049471;28;20050;-70
2022/05/27 11:21:02;;;;;;;0.47;0.40;;;;;;;25.99;40.66;99647.13;5048607;28;20051;-70
2022/05/27 11:23:48;;;;;;;0.52;0.40;;;;;;;25.95;40.69;99643.56;5049824;28;20061;-70
2022/05/27 11:26:38;;;;;;;0.50;0.40;;;;;;;25.97;40.83;99641.94;5049864;28;20501;-70
2022/05/27 11:29:21;;;;;;;0.30;0.30;;;;;;;26.05;40.76;99645.53;5049704;28;20044;-70
2022/05/27 11:32:02;;;;;;;0.55;0.40;;;;;;;25.96;41.24;99639.56;5049587;28;20056;-70
2022/05/27 11:34:59;;;;;;;0.50;0.50;;;;;;;25.95;41.13;99635.94;5049582;28;20099;-70
2022/05/27 11:37:59;;;;;;;0.38;0.30;;;;;;;25.99;41.11;99631.13;5055763;28;20053;-70
2022/05/27 11:40:45;;;;;;;0.30;0.30;;;;;;;26.01;41.07;99627.94;5057586;28;20136;-70
2022/05/27 11:43:29;;;;;;;0.52;0.40;;;;;;;26.05;40.77;99632.31;5056340;28;20049;-70
2022/05/27 11:46:23;;;;;;;0.70;0.40;;;;;;;26.07;40.93;99629.09;5049739;28;20041;-70
2022/05/27 11:48:57;;;;;;;0.40;0.40;;;;;;;26.04;41.11;99613.09;5049480;28;20402;-70
2022/05/27 11:51:44;;;;;;;0.85;0.43;;;;;;;26.01;41.33;99605.50;5049632;28;20037;-70
2022/05/27 11:54:21;;;;;;;0.40;0.40;;;;;;;25.99;41.22;99610.69;5049395;28;20049;-70
2022/05/27 11:56:58;;;;;;;0.70;0.50;;;;;;;26.03;41.24;99594.69;5048461;28;20106;-70
2022/05/27 11:59:27;;;;;;;0.40;0.40;;;;;;;26.06;41.47;99603.06;5052726;28;20485;-70
2022/05/27 12:02:03;;;;;;;0.47;0.38;;;;;;;26.09;41.47;99595.06;5052820;28;20047;-70
2022/05/27 12:04:41;;;;;;;0.68;0.40;;;;;;;26.07;41.28;99592.66;5051535;28;20091;-70
2022/05/27 12:07:14;;;;;;;0.40;0.40;;;;;;;26.10;41.41;99591.84;5052846;28;20045;-70
2022/05/27 12:09:49;;;;;;;;;;;;;;;26.09;41.42;99592.25;5051163;28;20049;-70
2022/05/27 12:12:22;;;;;;;0.57;0.40;;;;;;;26.05;41.35;99583.84;5053050;28;19970;-70
2022/05/27 12:14:51;;;;;;;;;;;;;;;26.13;41.28;99596.63;5052099;28;20047;-70
2022/05/27 12:17:25;;;;;;;0.55;0.38;;;;;;;26.10;41.32;99580.63;5052612;28;19927;-70
2022/05/27 12:20:01;;;;;;;0.30;0.30;;;;;;;26.04;41.48;99565.44;5052061;28;20048;-70
2022/05/27 12:22:32;;;;;;;0.50;0.40;;;;;;;26.05;41.45;99572.63;5052710;28;20041;-70
2022/05/27 12:25:04;;;;;;;0.52;0.40;;;;;;;26.06;41.36;99566.63;5052591;28;20040;-70
2022/05/27 12:27:32;;;;;;;0.73;0.45;;;;;;;26.07;41.49;99559.00;5052540;28;20049;-70